sensor_id;sensor_type;location;lat;lon;timestamp;temperature;humidity
4002;DHT22;2015;48.670;9.060;2023-10-19T00:02:19;11.10;99.90
4002;DHT22;2015;48.670;9.060;2023-10-19T00:04:54;11.10;99.90
4002;DHT22;2015;48.670;9.060;2023-10-19T00:07:26;11.10;99.90
4002;DHT22;2015;48.670;9.060;2023-10-19T00:09:58;11.10;99.90
4002;DHT22;2015;48.670;9.060;2023-10-19T00:12:30;11.00;99.90
4002;DHT22;2015;48.670;9.060;2023-10-19T00:15:04;11.00;99.90
4002;DHT22;2015;48.670;9.060;2023-10-19T00:17:36;11.00;99.90
4002;DHT22;2015;48.670;9.060;2023-10-19T00:20:10;11.00;99.90
4002;DHT22;2015;48.670;9.060;2023-10-19T00:23:00;11.00;99.90
4002;DHT22;2015;48.670;9.060;2023-10-19T00:25:37;11.00;99.90
4002;DHT22;2015;48.670;9.060;2023-10-19T00:28:12;11.00;99.90
4002;DHT22;2015;48.670;9.060;2023-10-19T00:30:46;11.00;99.90
4002;DHT22;2015;48.670;9.060;2023-10-19T00:33:21;11.00;99.90
4002;DHT22;2015;48.670;9.060;2023-10-19T00:35:53;10.90;99.90
4002;DHT22;2015;48.670;9.060;2023-10-19T00:38:29;11.00;99.90
4002;DHT22;2015;48.670;9.060;2023-10-19T00:41:11;11.00;99.90
4002;DHT22;2015;48.670;9.060;2023-10-19T00:43:42;11.00;99.90
4002;DHT22;2015;48.670;9.060;2023-10-19T00:46:16;11.00;99.90
4002;DHT22;2015;48.670;9.060;2023-10-19T00:48:59;11.00;99.90
4002;DHT22;2015;48.670;9.060;2023-10-19T00:51:36;11.00;99.90
4002;DHT22;2015;48.670;9.060;2023-10-19T00:54:11;11.00;99.90
4002;DHT22;2015;48.670;9.060;2023-10-19T00:56:47;11.10;99.90
4002;DHT22;2015;48.670;9.060;2023-10-19T00:59:23;11.10;99.90
4002;DHT22;2015;48.670;9.060;2023-10-19T01:02:02;11.10;99.90
4002;DHT22;2015;48.670;9.060;2023-10-19T01:04:50;11.10;99.90
4002;DHT22;2015;48.670;9.060;2023-10-19T01:07:28;11.10;99.90
4002;DHT22;2015;48.670;9.060;2023-10-19T01:10:02;11.30;99.90
4002;DHT22;2015;48.670;9.060;2023-10-19T01:12:37;11.40;99.90
4002;DHT22;2015;48.670;9.060;2023-10-19T01:15:16;11.50;99.90
4002;DHT22;2015;48.670;9.060;2023-10-19T01:17:50;11.40;99.90
4002;DHT22;2015;48.670;9.060;2023-10-19T01:20:29;11.40;99.90
4002;DHT22;2015;48.670;9.060;2023-10-19T01:23:06;11.40;99.90
4002;DHT22;2015;48.670;9.060;2023-10-19T01:25:46;11.30;99.90
4002;DHT22;2015;48.670;9.060;2023-10-19T01:28:32;11.30;99.90
4002;DHT22;2015;48.670;9.060;2023-10-19T01:31:19;11.30;99.90
4002;DHT22;2015;48.670;9.060;2023-10-19T01:33:56;11.30;99.90
4002;DHT22;2015;48.670;9.060;2023-10-19T01:36:29;11.30;99.90
4002;DHT22;2015;48.670;9.060;2023-10-19T01:39:04;11.30;99.90
4002;DHT22;2015;48.670;9.060;2023-10-19T01:41:42;11.30;99.90
4002;DHT22;2015;48.670;9.060;2023-10-19T01:44:15;11.40;99.90
4002;DHT22;2015;48.670;9.060;2023-10-19T01:46:47;11.40;99.90
4002;DHT22;2015;48.670;9.060;2023-10-19T01:49:20;11.40;99.90
4002;DHT22;2015;48.670;9.060;2023-10-19T01:51:58;11.40;99.90
4002;DHT22;2015;48.670;9.060;2023-10-19T01:54:29;11.40;99.90
4002;DHT22;2015;48.670;9.060;2023-10-19T01:57:01;11.40;99.90
4002;DHT22;2015;48.670;9.060;2023-10-19T01:59:34;11.40;99.90
4002;DHT22;2015;48.670;9.060;2023-10-19T02:02:06;11.40;99.90
4002;DHT22;2015;48.670;9.060;2023-10-19T02:04:41;11.40;99.90
4002;DHT22;2015;48.670;9.060;2023-10-19T02:07:13;11.40;99.90
4002;DHT22;2015;48.670;9.060;2023-10-19T02:09:49;11.40;99.90
4002;DHT22;2015;48.670;9.060;2023-10-19T02:12:22;11.40;99.90
4002;DHT22;2015;48.670;9.060;2023-10-19T02:14:54;11.40;99.90
4002;DHT22;2015;48.670;9.060;2023-10-19T02:17:26;11.40;99.90
4002;DHT22;2015;48.670;9.060;2023-10-19T02:19:58;11.40;99.90
4002;DHT22;2015;48.670;9.060;2023-10-19T02:22:30;11.40;99.90
4002;DHT22;2015;48.670;9.060;2023-10-19T02:25:02;11.30;99.90
4002;DHT22;2015;48.670;9.060;2023-10-19T02:27:36;11.20;99.90
4002;DHT22;2015;48.670;9.060;2023-10-19T02:30:09;11.20;99.90
4002;DHT22;2015;48.670;9.060;2023-10-19T02:32:43;11.10;99.90
4002;DHT22;2015;48.670;9.060;2023-10-19T02:35:15;11.10;99.90
4002;DHT22;2015;48.670;9.060;2023-10-19T02:37:47;11.20;99.90
4002;DHT22;2015;48.670;9.060;2023-10-19T02:40:18;11.10;99.90
4002;DHT22;2015;48.670;9.060;2023-10-19T02:42:55;11.20;99.90
4002;DHT22;2015;48.670;9.060;2023-10-19T02:45:27;11.10;99.90
4002;DHT22;2015;48.670;9.060;2023-10-19T02:48:02;11.10;99.90
4002;DHT22;2015;48.670;9.060;2023-10-19T02:50:36;11.10;99.90
4002;DHT22;2015;48.670;9.060;2023-10-19T02:53:07;11.00;99.90
4002;DHT22;2015;48.670;9.060;2023-10-19T02:55:44;11.00;99.90
4002;DHT22;2015;48.670;9.060;2023-10-19T02:58:16;11.00;99.90
4002;DHT22;2015;48.670;9.060;2023-10-19T03:00:47;10.90;99.90
4002;DHT22;2015;48.670;9.060;2023-10-19T03:03:19;10.80;99.90
4002;DHT22;2015;48.670;9.060;2023-10-19T03:05:51;10.80;99.90
4002;DHT22;2015;48.670;9.060;2023-10-19T03:08:24;10.80;99.90
4002;DHT22;2015;48.670;9.060;2023-10-19T03:10:57;10.70;99.90
4002;DHT22;2015;48.670;9.060;2023-10-19T03:13:35;10.70;99.90
4002;DHT22;2015;48.670;9.060;2023-10-19T03:16:07;10.70;99.90
4002;DHT22;2015;48.670;9.060;2023-10-19T03:18:39;10.60;99.90
4002;DHT22;2015;48.670;9.060;2023-10-19T03:21:11;10.60;99.90
4002;DHT22;2015;48.670;9.060;2023-10-19T03:23:43;10.60;99.90
4002;DHT22;2015;48.670;9.060;2023-10-19T03:26:14;10.60;99.90
4002;DHT22;2015;48.670;9.060;2023-10-19T03:28:52;10.60;99.90
4002;DHT22;2015;48.670;9.060;2023-10-19T03:31:26;10.60;99.90
4002;DHT22;2015;48.670;9.060;2023-10-19T03:33:58;10.50;99.90
4002;DHT22;2015;48.670;9.060;2023-10-19T03:36:30;10.60;99.90
4002;DHT22;2015;48.670;9.060;2023-10-19T03:39:04;10.50;99.90
4002;DHT22;2015;48.670;9.060;2023-10-19T03:41:45;10.50;99.90
4002;DHT22;2015;48.670;9.060;2023-10-19T03:44:17;10.50;99.90
4002;DHT22;2015;48.670;9.060;2023-10-19T03:46:55;10.50;99.90
4002;DHT22;2015;48.670;9.060;2023-10-19T03:49:29;10.50;99.90
4002;DHT22;2015;48.670;9.060;2023-10-19T03:52:10;10.40;99.90
4002;DHT22;2015;48.670;9.060;2023-10-19T03:54:41;10.40;99.90
4002;DHT22;2015;48.670;9.060;2023-10-19T03:57:17;10.40;99.90
4002;DHT22;2015;48.670;9.060;2023-10-19T04:00:01;10.30;99.90
4002;DHT22;2015;48.670;9.060;2023-10-19T04:02:35;10.30;99.90
4002;DHT22;2015;48.670;9.060;2023-10-19T04:05:10;10.30;99.90
4002;DHT22;2015;48.670;9.060;2023-10-19T04:07:46;10.30;99.90
4002;DHT22;2015;48.670;9.060;2023-10-19T04:10:17;10.30;99.90
4002;DHT22;2015;48.670;9.060;2023-10-19T04:13:02;10.30;99.90
4002;DHT22;2015;48.670;9.060;2023-10-19T04:15:34;10.30;99.90
4002;DHT22;2015;48.670;9.060;2023-10-19T04:18:07;10.20;99.90
4002;DHT22;2015;48.670;9.060;2023-10-19T04:20:42;10.20;99.90
4002;DHT22;2015;48.670;9.060;2023-10-19T04:23:27;10.20;99.90
4002;DHT22;2015;48.670;9.060;2023-10-19T04:25:59;10.20;99.90
4002;DHT22;2015;48.670;9.060;2023-10-19T04:28:38;10.10;99.90
4002;DHT22;2015;48.670;9.060;2023-10-19T04:31:13;10.10;99.90
4002;DHT22;2015;48.670;9.060;2023-10-19T04:33:47;10.10;99.90
4002;DHT22;2015;48.670;9.060;2023-10-19T04:36:19;10.10;99.90
4002;DHT22;2015;48.670;9.060;2023-10-19T04:38:53;10.10;99.90
4002;DHT22;2015;48.670;9.060;2023-10-19T04:41:27;10.10;99.90
4002;DHT22;2015;48.670;9.060;2023-10-19T04:44:02;10.10;99.90
4002;DHT22;2015;48.670;9.060;2023-10-19T04:46:34;10.10;99.90
4002;DHT22;2015;48.670;9.060;2023-10-19T04:49:06;10.10;99.90
4002;DHT22;2015;48.670;9.060;2023-10-19T04:51:38;10.10;99.90
4002;DHT22;2015;48.670;9.060;2023-10-19T04:54:10;10.10;99.90
4002;DHT22;2015;48.670;9.060;2023-10-19T04:56:42;10.10;99.90
4002;DHT22;2015;48.670;9.060;2023-10-19T04:59:14;10.10;99.90
4002;DHT22;2015;48.670;9.060;2023-10-19T05:01:45;10.10;99.90
4002;DHT22;2015;48.670;9.060;2023-10-19T05:04:17;10.10;99.90
4002;DHT22;2015;48.670;9.060;2023-10-19T05:06:49;10.10;99.90
4002;DHT22;2015;48.670;9.060;2023-10-19T05:09:21;10.10;99.90
4002;DHT22;2015;48.670;9.060;2023-10-19T05:11:53;10.10;99.90
4002;DHT22;2015;48.670;9.060;2023-10-19T05:14:25;10.10;99.90
4002;DHT22;2015;48.670;9.060;2023-10-19T05:16:57;10.10;99.90
4002;DHT22;2015;48.670;9.060;2023-10-19T05:19:30;10.10;99.90
4002;DHT22;2015;48.670;9.060;2023-10-19T05:22:05;10.00;99.90
4002;DHT22;2015;48.670;9.060;2023-10-19T05:24:40;10.00;99.90
4002;DHT22;2015;48.670;9.060;2023-10-19T05:27:12;10.00;99.90
4002;DHT22;2015;48.670;9.060;2023-10-19T05:29:47;10.00;99.90
4002;DHT22;2015;48.670;9.060;2023-10-19T05:32:19;10.00;99.90
4002;DHT22;2015;48.670;9.060;2023-10-19T05:34:51;10.00;99.90
4002;DHT22;2015;48.670;9.060;2023-10-19T05:37:23;10.00;99.90
4002;DHT22;2015;48.670;9.060;2023-10-19T05:39:57;10.00;99.90
4002;DHT22;2015;48.670;9.060;2023-10-19T05:42:28;10.00;99.90
4002;DHT22;2015;48.670;9.060;2023-10-19T05:45:01;10.10;99.90
4002;DHT22;2015;48.670;9.060;2023-10-19T05:47:34;10.10;99.90
4002;DHT22;2015;48.670;9.060;2023-10-19T05:50:06;10.20;99.90
4002;DHT22;2015;48.670;9.060;2023-10-19T05:52:38;10.30;99.90
4002;DHT22;2015;48.670;9.060;2023-10-19T05:55:11;10.30;99.90
4002;DHT22;2015;48.670;9.060;2023-10-19T05:57:42;10.30;99.90
4002;DHT22;2015;48.670;9.060;2023-10-19T06:00:15;10.30;99.90
4002;DHT22;2015;48.670;9.060;2023-10-19T06:02:49;10.30;99.90
4002;DHT22;2015;48.670;9.060;2023-10-19T06:05:21;10.40;99.90
4002;DHT22;2015;48.670;9.060;2023-10-19T06:07:53;10.40;99.90
4002;DHT22;2015;48.670;9.060;2023-10-19T06:10:27;10.40;99.90
4002;DHT22;2015;48.670;9.060;2023-10-19T06:12:59;10.50;99.90
4002;DHT22;2015;48.670;9.060;2023-10-19T06:15:30;10.50;99.90
4002;DHT22;2015;48.670;9.060;2023-10-19T06:18:04;10.50;99.90
4002;DHT22;2015;48.670;9.060;2023-10-19T06:20:36;10.50;99.90
4002;DHT22;2015;48.670;9.060;2023-10-19T06:23:08;10.60;99.90
4002;DHT22;2015;48.670;9.060;2023-10-19T06:25:40;10.60;99.90
4002;DHT22;2015;48.670;9.060;2023-10-19T06:28:15;10.60;99.90
4002;DHT22;2015;48.670;9.060;2023-10-19T06:30:47;10.60;99.90
4002;DHT22;2015;48.670;9.060;2023-10-19T06:33:20;10.70;99.90
4002;DHT22;2015;48.670;9.060;2023-10-19T06:35:54;10.70;99.90
4002;DHT22;2015;48.670;9.060;2023-10-19T06:38:26;10.80;99.90
4002;DHT22;2015;48.670;9.060;2023-10-19T06:41:09;10.80;99.90
4002;DHT22;2015;48.670;9.060;2023-10-19T06:43:42;10.80;99.90
4002;DHT22;2015;48.670;9.060;2023-10-19T06:46:14;10.80;99.90
4002;DHT22;2015;48.670;9.060;2023-10-19T06:48:46;10.90;99.90
4002;DHT22;2015;48.670;9.060;2023-10-19T06:51:18;10.90;99.90
4002;DHT22;2015;48.670;9.060;2023-10-19T06:53:51;11.00;99.90
4002;DHT22;2015;48.670;9.060;2023-10-19T06:56:23;11.00;99.90
4002;DHT22;2015;48.670;9.060;2023-10-19T06:58:55;11.10;99.90
4002;DHT22;2015;48.670;9.060;2023-10-19T07:01:27;11.10;99.90
4002;DHT22;2015;48.670;9.060;2023-10-19T07:04:01;11.10;99.90
4002;DHT22;2015;48.670;9.060;2023-10-19T07:06:34;11.20;99.90
4002;DHT22;2015;48.670;9.060;2023-10-19T07:09:06;11.20;99.90
4002;DHT22;2015;48.670;9.060;2023-10-19T07:11:38;11.30;99.90
4002;DHT22;2015;48.670;9.060;2023-10-19T07:14:11;11.30;99.90
4002;DHT22;2015;48.670;9.060;2023-10-19T07:16:44;11.30;99.90
4002;DHT22;2015;48.670;9.060;2023-10-19T07:19:16;11.40;99.90
4002;DHT22;2015;48.670;9.060;2023-10-19T07:21:48;11.40;99.90
4002;DHT22;2015;48.670;9.060;2023-10-19T07:24:21;11.50;99.90
4002;DHT22;2015;48.670;9.060;2023-10-19T07:26:55;11.50;99.90
4002;DHT22;2015;48.670;9.060;2023-10-19T07:29:36;11.60;99.90
4002;DHT22;2015;48.670;9.060;2023-10-19T07:32:08;11.70;99.90
4002;DHT22;2015;48.670;9.060;2023-10-19T07:34:43;11.80;99.90
4002;DHT22;2015;48.670;9.060;2023-10-19T07:37:16;11.90;99.90
4002;DHT22;2015;48.670;9.060;2023-10-19T07:39:48;12.00;99.90
4002;DHT22;2015;48.670;9.060;2023-10-19T07:42:19;12.10;99.90
4002;DHT22;2015;48.670;9.060;2023-10-19T07:44:53;12.10;99.90
4002;DHT22;2015;48.670;9.060;2023-10-19T07:47:25;12.20;99.90
4002;DHT22;2015;48.670;9.060;2023-10-19T07:49:57;12.30;99.90
4002;DHT22;2015;48.670;9.060;2023-10-19T07:52:29;12.30;99.90
4002;DHT22;2015;48.670;9.060;2023-10-19T07:55:00;12.50;99.90
4002;DHT22;2015;48.670;9.060;2023-10-19T07:57:34;12.60;99.90
4002;DHT22;2015;48.670;9.060;2023-10-19T08:00:06;12.60;99.90
4002;DHT22;2015;48.670;9.060;2023-10-19T08:02:40;12.70;99.90
4002;DHT22;2015;48.670;9.060;2023-10-19T08:05:17;12.80;99.90
4002;DHT22;2015;48.670;9.060;2023-10-19T08:07:52;12.90;99.90
4002;DHT22;2015;48.670;9.060;2023-10-19T08:10:24;13.00;99.90
4002;DHT22;2015;48.670;9.060;2023-10-19T08:12:58;13.00;99.90
4002;DHT22;2015;48.670;9.060;2023-10-19T08:15:31;13.10;99.90
4002;DHT22;2015;48.670;9.060;2023-10-19T08:18:03;13.10;99.90
4002;DHT22;2015;48.670;9.060;2023-10-19T08:20:37;13.20;99.90
4002;DHT22;2015;48.670;9.060;2023-10-19T08:23:09;13.30;99.90
4002;DHT22;2015;48.670;9.060;2023-10-19T08:25:42;13.40;99.90
4002;DHT22;2015;48.670;9.060;2023-10-19T08:28:27;13.60;99.90
4002;DHT22;2015;48.670;9.060;2023-10-19T08:30:59;13.80;99.90
4002;DHT22;2015;48.670;9.060;2023-10-19T08:33:32;14.00;99.90
4002;DHT22;2015;48.670;9.060;2023-10-19T08:36:17;14.20;99.90
4002;DHT22;2015;48.670;9.060;2023-10-19T08:38:51;14.40;99.90
4002;DHT22;2015;48.670;9.060;2023-10-19T08:41:25;14.60;99.90
4002;DHT22;2015;48.670;9.060;2023-10-19T08:43:57;14.70;99.90
4002;DHT22;2015;48.670;9.060;2023-10-19T08:46:29;14.90;99.90
4002;DHT22;2015;48.670;9.060;2023-10-19T08:49:00;15.00;99.90
4002;DHT22;2015;48.670;9.060;2023-10-19T08:51:32;15.00;99.90
4002;DHT22;2015;48.670;9.060;2023-10-19T08:54:08;15.00;99.90
4002;DHT22;2015;48.670;9.060;2023-10-19T08:56:42;15.20;99.90
4002;DHT22;2015;48.670;9.060;2023-10-19T08:59:14;15.20;99.90
4002;DHT22;2015;48.670;9.060;2023-10-19T09:01:49;15.40;99.90
4002;DHT22;2015;48.670;9.060;2023-10-19T09:04:20;15.50;99.90
4002;DHT22;2015;48.670;9.060;2023-10-19T09:06:53;15.60;99.90
4002;DHT22;2015;48.670;9.060;2023-10-19T09:09:28;15.80;99.90
4002;DHT22;2015;48.670;9.060;2023-10-19T09:12:03;15.90;99.90
4002;DHT22;2015;48.670;9.060;2023-10-19T09:14:36;16.00;99.90
4002;DHT22;2015;48.670;9.060;2023-10-19T09:17:12;16.00;99.90
4002;DHT22;2015;48.670;9.060;2023-10-19T09:19:45;16.10;99.90
4002;DHT22;2015;48.670;9.060;2023-10-19T09:22:19;16.20;99.90
4002;DHT22;2015;48.670;9.060;2023-10-19T09:24:54;16.30;99.90
4002;DHT22;2015;48.670;9.060;2023-10-19T09:27:27;16.50;99.90
4002;DHT22;2015;48.670;9.060;2023-10-19T09:29:59;16.80;99.90
4002;DHT22;2015;48.670;9.060;2023-10-19T09:32:32;17.40;99.90
4002;DHT22;2015;48.670;9.060;2023-10-19T09:35:05;18.30;99.90
4002;DHT22;2015;48.670;9.060;2023-10-19T09:37:37;18.90;99.90
4002;DHT22;2015;48.670;9.060;2023-10-19T09:40:10;18.70;99.90
4002;DHT22;2015;48.670;9.060;2023-10-19T09:42:47;18.60;99.90
4002;DHT22;2015;48.670;9.060;2023-10-19T09:45:27;18.30;99.90
4002;DHT22;2015;48.670;9.060;2023-10-19T09:48:02;18.00;99.90
4002;DHT22;2015;48.670;9.060;2023-10-19T09:50:36;17.90;99.90
4002;DHT22;2015;48.670;9.060;2023-10-19T09:53:08;17.60;99.90
4002;DHT22;2015;48.670;9.060;2023-10-19T09:55:40;17.30;99.90
4002;DHT22;2015;48.670;9.060;2023-10-19T09:58:16;17.20;99.90
4002;DHT22;2015;48.670;9.060;2023-10-19T10:00:51;17.10;99.90
4002;DHT22;2015;48.670;9.060;2023-10-19T10:03:45;16.90;99.90
4002;DHT22;2015;48.670;9.060;2023-10-19T10:06:31;16.80;99.90
4002;DHT22;2015;48.670;9.060;2023-10-19T10:09:19;16.70;99.90
4002;DHT22;2015;48.670;9.060;2023-10-19T10:11:53;16.50;99.90
4002;DHT22;2015;48.670;9.060;2023-10-19T10:14:26;16.60;99.90
4002;DHT22;2015;48.670;9.060;2023-10-19T10:17:04;16.60;99.90
4002;DHT22;2015;48.670;9.060;2023-10-19T10:19:36;16.80;99.90
4002;DHT22;2015;48.670;9.060;2023-10-19T10:22:10;16.90;99.90
4002;DHT22;2015;48.670;9.060;2023-10-19T10:24:55;17.00;99.90
4002;DHT22;2015;48.670;9.060;2023-10-19T10:27:27;17.00;99.90
4002;DHT22;2015;48.670;9.060;2023-10-19T10:30:04;16.90;99.90
4002;DHT22;2015;48.670;9.060;2023-10-19T10:32:53;16.80;99.90
4002;DHT22;2015;48.670;9.060;2023-10-19T10:38:11;16.70;99.90
4002;DHT22;2015;48.670;9.060;2023-10-19T10:40:50;16.60;99.90
4002;DHT22;2015;48.670;9.060;2023-10-19T10:43:22;16.60;99.90
4002;DHT22;2015;48.670;9.060;2023-10-19T10:46:05;16.60;99.90
4002;DHT22;2015;48.670;9.060;2023-10-19T10:48:41;16.50;99.90
4002;DHT22;2015;48.670;9.060;2023-10-19T10:51:21;16.60;99.90
4002;DHT22;2015;48.670;9.060;2023-10-19T10:53:54;16.50;99.90
4002;DHT22;2015;48.670;9.060;2023-10-19T10:56:26;16.50;99.90
4002;DHT22;2015;48.670;9.060;2023-10-19T10:58:57;16.40;99.90
4002;DHT22;2015;48.670;9.060;2023-10-19T11:01:33;16.40;99.90
4002;DHT22;2015;48.670;9.060;2023-10-19T11:04:09;16.20;99.90
4002;DHT22;2015;48.670;9.060;2023-10-19T11:06:52;16.10;99.90
4002;DHT22;2015;48.670;9.060;2023-10-19T11:09:26;16.00;99.90
4002;DHT22;2015;48.670;9.060;2023-10-19T11:11:59;15.90;99.90
4002;DHT22;2015;48.670;9.060;2023-10-19T11:14:57;15.80;99.90
4002;DHT22;2015;48.670;9.060;2023-10-19T11:17:31;15.60;99.90
4002;DHT22;2015;48.670;9.060;2023-10-19T11:20:03;15.60;99.90
4002;DHT22;2015;48.670;9.060;2023-10-19T11:22:48;15.40;99.90
4002;DHT22;2015;48.670;9.060;2023-10-19T11:25:22;15.40;99.90
4002;DHT22;2015;48.670;9.060;2023-10-19T11:27:55;15.40;99.90
4002;DHT22;2015;48.670;9.060;2023-10-19T11:30:31;15.40;99.90
4002;DHT22;2015;48.670;9.060;2023-10-19T11:33:04;15.40;99.90
4002;DHT22;2015;48.670;9.060;2023-10-19T11:35:35;15.30;99.90
4002;DHT22;2015;48.670;9.060;2023-10-19T11:38:07;15.30;99.90
4002;DHT22;2015;48.670;9.060;2023-10-19T11:40:39;15.30;99.90
4002;DHT22;2015;48.670;9.060;2023-10-19T11:43:11;15.30;99.90
4002;DHT22;2015;48.670;9.060;2023-10-19T11:45:44;15.30;99.90
4002;DHT22;2015;48.670;9.060;2023-10-19T11:48:17;15.30;99.90
4002;DHT22;2015;48.670;9.060;2023-10-19T11:50:49;15.30;99.90
4002;DHT22;2015;48.670;9.060;2023-10-19T11:53:20;15.30;99.90
4002;DHT22;2015;48.670;9.060;2023-10-19T11:55:52;15.30;99.90
4002;DHT22;2015;48.670;9.060;2023-10-19T11:58:24;15.30;99.90
4002;DHT22;2015;48.670;9.060;2023-10-19T12:00:56;15.30;99.90
4002;DHT22;2015;48.670;9.060;2023-10-19T12:03:27;15.20;99.90
4002;DHT22;2015;48.670;9.060;2023-10-19T12:05:59;15.20;99.90
4002;DHT22;2015;48.670;9.060;2023-10-19T12:08:31;15.10;99.90
4002;DHT22;2015;48.670;9.060;2023-10-19T12:11:04;15.10;99.90
4002;DHT22;2015;48.670;9.060;2023-10-19T12:13:36;15.10;99.90
4002;DHT22;2015;48.670;9.060;2023-10-19T12:16:10;15.00;99.90
4002;DHT22;2015;48.670;9.060;2023-10-19T12:18:45;15.00;99.90
4002;DHT22;2015;48.670;9.060;2023-10-19T12:21:18;15.10;99.90
4002;DHT22;2015;48.670;9.060;2023-10-19T12:23:50;15.10;99.90
4002;DHT22;2015;48.670;9.060;2023-10-19T12:26:26;15.10;99.90
4002;DHT22;2015;48.670;9.060;2023-10-19T12:28:58;15.00;99.90
4002;DHT22;2015;48.670;9.060;2023-10-19T12:31:30;15.00;99.90
4002;DHT22;2015;48.670;9.060;2023-10-19T12:34:04;14.90;99.90
4002;DHT22;2015;48.670;9.060;2023-10-19T12:36:38;14.90;99.90
4002;DHT22;2015;48.670;9.060;2023-10-19T12:39:10;14.90;99.90
4002;DHT22;2015;48.670;9.060;2023-10-19T12:42:02;14.90;99.90
4002;DHT22;2015;48.670;9.060;2023-10-19T12:44:35;14.90;99.90
4002;DHT22;2015;48.670;9.060;2023-10-19T12:47:11;14.90;99.90
4002;DHT22;2015;48.670;9.060;2023-10-19T12:49:47;14.90;99.90
4002;DHT22;2015;48.670;9.060;2023-10-19T12:52:19;15.00;99.90
4002;DHT22;2015;48.670;9.060;2023-10-19T12:54:51;15.00;99.90
4002;DHT22;2015;48.670;9.060;2023-10-19T12:57:35;15.00;99.90
4002;DHT22;2015;48.670;9.060;2023-10-19T13:00:07;15.10;99.90
4002;DHT22;2015;48.670;9.060;2023-10-19T13:02:57;15.10;99.90
4002;DHT22;2015;48.670;9.060;2023-10-19T13:05:33;15.10;99.90
4002;DHT22;2015;48.670;9.060;2023-10-19T13:08:05;15.10;99.90
4002;DHT22;2015;48.670;9.060;2023-10-19T13:10:38;15.10;99.90
4002;DHT22;2015;48.670;9.060;2023-10-19T13:13:13;15.10;99.90
4002;DHT22;2015;48.670;9.060;2023-10-19T13:15:46;15.10;99.90
4002;DHT22;2015;48.670;9.060;2023-10-19T13:18:19;15.20;99.90
4002;DHT22;2015;48.670;9.060;2023-10-19T13:20:53;15.20;99.90
4002;DHT22;2015;48.670;9.060;2023-10-19T13:23:25;15.20;99.90
4002;DHT22;2015;48.670;9.060;2023-10-19T13:25:57;15.20;99.90
4002;DHT22;2015;48.670;9.060;2023-10-19T13:28:33;15.20;99.90
4002;DHT22;2015;48.670;9.060;2023-10-19T13:31:05;15.20;99.90
4002;DHT22;2015;48.670;9.060;2023-10-19T13:33:41;15.10;99.90
4002;DHT22;2015;48.670;9.060;2023-10-19T13:36:18;15.10;99.90
4002;DHT22;2015;48.670;9.060;2023-10-19T13:38:51;15.10;99.90
4002;DHT22;2015;48.670;9.060;2023-10-19T13:41:22;15.00;99.90
4002;DHT22;2015;48.670;9.060;2023-10-19T13:43:54;15.00;99.90
4002;DHT22;2015;48.670;9.060;2023-10-19T13:46:26;15.00;99.90
4002;DHT22;2015;48.670;9.060;2023-10-19T13:48:59;15.00;99.90
4002;DHT22;2015;48.670;9.060;2023-10-19T13:51:31;15.00;99.90
4002;DHT22;2015;48.670;9.060;2023-10-19T13:54:05;15.00;99.90
4002;DHT22;2015;48.670;9.060;2023-10-19T13:56:37;15.00;99.90
4002;DHT22;2015;48.670;9.060;2023-10-19T13:59:09;15.00;99.90
4002;DHT22;2015;48.670;9.060;2023-10-19T14:01:43;15.00;99.90
4002;DHT22;2015;48.670;9.060;2023-10-19T14:04:15;15.00;99.90
4002;DHT22;2015;48.670;9.060;2023-10-19T14:06:47;15.00;99.90
4002;DHT22;2015;48.670;9.060;2023-10-19T14:09:21;15.00;99.90
4002;DHT22;2015;48.670;9.060;2023-10-19T14:11:55;15.00;99.90
4002;DHT22;2015;48.670;9.060;2023-10-19T14:14:26;15.00;99.90
4002;DHT22;2015;48.670;9.060;2023-10-19T14:16:58;15.00;99.90
4002;DHT22;2015;48.670;9.060;2023-10-19T14:19:30;15.00;99.90
4002;DHT22;2015;48.670;9.060;2023-10-19T14:22:04;14.90;99.90
4002;DHT22;2015;48.670;9.060;2023-10-19T14:24:36;14.90;99.90
4002;DHT22;2015;48.670;9.060;2023-10-19T14:27:08;14.90;99.90
4002;DHT22;2015;48.670;9.060;2023-10-19T14:29:40;14.80;99.90
4002;DHT22;2015;48.670;9.060;2023-10-19T14:32:12;14.80;99.90
4002;DHT22;2015;48.670;9.060;2023-10-19T14:34:44;14.80;99.90
4002;DHT22;2015;48.670;9.060;2023-10-19T14:37:16;14.90;99.90
4002;DHT22;2015;48.670;9.060;2023-10-19T14:39:49;14.90;99.90
4002;DHT22;2015;48.670;9.060;2023-10-19T14:42:20;14.90;99.90
4002;DHT22;2015;48.670;9.060;2023-10-19T14:44:52;14.90;99.90
4002;DHT22;2015;48.670;9.060;2023-10-19T14:47:24;14.90;99.90
4002;DHT22;2015;48.670;9.060;2023-10-19T14:49:56;14.90;99.90
4002;DHT22;2015;48.670;9.060;2023-10-19T14:52:28;14.80;99.90
4002;DHT22;2015;48.670;9.060;2023-10-19T14:54:59;14.80;99.90
4002;DHT22;2015;48.670;9.060;2023-10-19T14:57:32;14.80;99.90
4002;DHT22;2015;48.670;9.060;2023-10-19T15:00:09;14.80;99.90
4002;DHT22;2015;48.670;9.060;2023-10-19T15:02:46;14.90;99.90
4002;DHT22;2015;48.670;9.060;2023-10-19T15:05:18;14.80;99.90
4002;DHT22;2015;48.670;9.060;2023-10-19T15:07:52;14.80;99.90
4002;DHT22;2015;48.670;9.060;2023-10-19T15:10:27;14.80;99.90
4002;DHT22;2015;48.670;9.060;2023-10-19T15:13:00;14.90;99.90
4002;DHT22;2015;48.670;9.060;2023-10-19T15:15:32;14.90;99.90
4002;DHT22;2015;48.670;9.060;2023-10-19T15:18:04;14.80;99.90
4002;DHT22;2015;48.670;9.060;2023-10-19T15:20:36;14.80;99.90
4002;DHT22;2015;48.670;9.060;2023-10-19T15:23:07;14.80;99.90
4002;DHT22;2015;48.670;9.060;2023-10-19T15:25:39;14.80;99.90
4002;DHT22;2015;48.670;9.060;2023-10-19T15:28:12;14.80;99.90
4002;DHT22;2015;48.670;9.060;2023-10-19T15:30:43;14.80;99.90
4002;DHT22;2015;48.670;9.060;2023-10-19T15:33:15;14.80;99.90
4002;DHT22;2015;48.670;9.060;2023-10-19T15:35:50;14.80;99.90
4002;DHT22;2015;48.670;9.060;2023-10-19T15:38:23;14.80;99.90
4002;DHT22;2015;48.670;9.060;2023-10-19T15:40:55;14.70;99.90
4002;DHT22;2015;48.670;9.060;2023-10-19T15:43:27;14.70;99.90
4002;DHT22;2015;48.670;9.060;2023-10-19T15:45:59;14.70;99.90
4002;DHT22;2015;48.670;9.060;2023-10-19T15:48:34;14.70;99.90
4002;DHT22;2015;48.670;9.060;2023-10-19T15:51:06;14.70;99.90
4002;DHT22;2015;48.670;9.060;2023-10-19T15:53:38;14.60;99.90
4002;DHT22;2015;48.670;9.060;2023-10-19T15:56:09;14.60;99.90
4002;DHT22;2015;48.670;9.060;2023-10-19T15:58:41;14.50;99.90
4002;DHT22;2015;48.670;9.060;2023-10-19T16:01:13;14.50;99.90
4002;DHT22;2015;48.670;9.060;2023-10-19T16:03:47;14.50;99.90
4002;DHT22;2015;48.670;9.060;2023-10-19T16:06:19;14.40;99.90
4002;DHT22;2015;48.670;9.060;2023-10-19T16:08:51;14.40;99.90
4002;DHT22;2015;48.670;9.060;2023-10-19T16:11:23;14.40;99.90
4002;DHT22;2015;48.670;9.060;2023-10-19T16:13:56;14.30;99.90
4002;DHT22;2015;48.670;9.060;2023-10-19T16:16:28;14.30;99.90
4002;DHT22;2015;48.670;9.060;2023-10-19T16:18:59;14.20;99.90
4002;DHT22;2015;48.670;9.060;2023-10-19T16:21:31;14.10;99.90
4002;DHT22;2015;48.670;9.060;2023-10-19T16:24:03;14.10;99.90
4002;DHT22;2015;48.670;9.060;2023-10-19T16:26:36;14.10;99.90
4002;DHT22;2015;48.670;9.060;2023-10-19T16:29:08;14.00;99.90
4002;DHT22;2015;48.670;9.060;2023-10-19T16:31:46;14.00;99.90
4002;DHT22;2015;48.670;9.060;2023-10-19T16:34:21;14.00;99.90
4002;DHT22;2015;48.670;9.060;2023-10-19T16:36:53;14.00;99.90
4002;DHT22;2015;48.670;9.060;2023-10-19T16:39:25;14.00;99.90
4002;DHT22;2015;48.670;9.060;2023-10-19T16:41:57;13.90;99.90
4002;DHT22;2015;48.670;9.060;2023-10-19T16:44:29;13.90;99.90
4002;DHT22;2015;48.670;9.060;2023-10-19T16:47:01;13.90;99.90
4002;DHT22;2015;48.670;9.060;2023-10-19T16:49:35;13.90;99.90